Tiempo atmosférico en la estación meteorológica de Tomelloso, Ciudad Real (662 m.)



Fecha
DESCASC
Temp. máxima en grados centígrados (hora)
DESCASC
Temp. mínima en grados centígrados (hora)
DESCASC
Temp. media en grados centígrados
DESCASC
Racha de viento máxima en m/sg (hora)
DESCASC
Velocidad máxima media en intervalos de 10 minutos(hora)
DESCASC
Precipitaciones diarias en mm
DESCASC
Precipitaciones de 00:00 a 06:00 en mm
DESCASC
Precipitaciones de 06:00 a 12:00 en mm
DESCASC
Precipitaciones de 12:00 a 18:00 en mm
DESCASC
Precipitaciones de 18:00 a 24:00 en mm
DESCASC
17-09-2020 29.1 (16:50) 18.1 (04:00) 23.6 -- (--) -- (--) 2 1.4 0 0 0.6
16-09-2020 31.8 (16:30) 15.3 (08:20) 23.5 -- (--) -- (--) 0 0 0 0 0
15-09-2020 31.6 (16:40) 19.3 (04:10) 25.4 5.83 (15:50) 3.61 (00:40) 0.4 0.4 0 0 0
14-09-2020 33.8 (16:10) 14.1 (00:00) 23.9 -- (--) -- (--) 0 0 0 0 0
13-09-2020 32.5 (14:40) 15.4 (00:00) 23.9 10.56 (13:30) 7.5 (18:10) 0 0 0 0 0
12-09-2020 33.8 (18:00) 14.7 (00:00) 24.2 8.89 (16:40) 5 (20:30) 0 0 0 0 0
11-09-2020 -- (--) -- (--) -- -- (--) -- (--) -- -- -- -- 0
10-09-2020 -- (--) -- (--) -- -- (--) -- (--) -- -- -- -- --
09-09-2020 -- (--) -- (--) -- -- (--) -- (--) -- 0 0 0 --
08-09-2020 27.3 (16:50) 13.5 (00:00) 20.4 17.78 (16:30) 9.44 (10:10) 0 0 0 0 0
07-09-2020 29.9 (16:30) 14.2 (07:40) 22 8.61 (23:40) 5.28 (23:40) 0 0 0 0 0
06-09-2020 34.8 (16:20) 15.5 (00:00) 25.1 7.5 (11:50) 4.72 (10:50) 0 0 0 0 0
05-09-2020 32.9 (17:30) 13.3 (00:00) 23.1 7.5 (16:30) 4.72 (18:20) 0 0 0 0 0
04-09-2020 31.8 (17:20) 14.5 (00:00) 23.1 12.22 (13:20) 7.5 (12:10) 0 0 0 0 0
03-09-2020 31.6 (14:50) 12.7 (00:00) 22.2 8.89 (18:00) 5.28 (19:30) 0 0 0 0 0
02-09-2020 31.1 (16:50) 12.4 (00:00) 21.8 6.94 (15:10) 3.89 (15:10) 0 0 0 0 0
01-09-2020 29.9 (16:10) 10.8 (00:00) 20.3 6.67 (16:00) 3.61 (16:00) 0 0 0 0 0
31-08-2020 28.5 (17:30) 7.1 (00:00) 17.8 6.11 (13:40) 3.89 (11:30) 0 0 0 0 0
30-08-2020 25.6 (16:20) 10.1 (00:00) 17.9 6.67 (00:10) 3.61 (11:40) 0 0 0 0 0
29-08-2020 26.1 (15:50) 15.1 (00:00) 20.6 10.83 (14:50) 5.28 (11:50) 0 0 0 0 0
28-08-2020 34.4 (15:20) 22.4 (00:00) 28.4 12.22 (19:50) 5.83 (16:40) 0 0 0 0 0
27-08-2020 38.7 (16:20) 19.7 (00:00) 29.2 6.11 (22:40) 3.33 (22:40) 0 0 0 0 0
26-08-2020 38.7 (18:10) 17.4 (00:00) 28.1 6.39 (15:40) 3.06 (10:10) 0 0 0 0 0
25-08-2020 37.9 (17:00) 15.3 (00:00) 26.6 6.11 (14:00) 3.33 (00:50) 0 0 0 0 0
24-08-2020 36.5 (17:30) 17.1 (00:00) 26.8 6.39 (15:10) 3.33 (04:00) 0 0 0 0 0
23-08-2020 36.1 (17:10) 15.1 (00:00) 25.6 6.94 (15:50) 3.06 (11:50) 0 0 0 0 0
22-08-2020 35.6 (18:40) 19.4 (00:00) 27.5 6.94 (17:10) 3.33 (17:30) 0 0 0 0 0
21-08-2020 36.3 (18:00) 18.6 (00:00) 27.4 8.33 (18:30) 3.89 (17:10) 0 0 0 0 0

Gráficas

Temp. máximas Temp. mínimas Temp. medias Precipitaciones Rachas de viento máximas Velocidades máximas media en intervalos de 10 minutos

Datos horarios

Fecha y hora oficial Temperatura (ºC) Velocidad del viento (km/h) Dirección del viento Racha (km/h) Dirección de racha Precipitación (mm) Presión (hPa) Tendencia (hPa) Humedad (%)
2020-09-19 23:00:00 17.6 12 Sudoeste 24 Sudoeste 0 943.4 1.8 82
2020-09-19 22:00:00 18.6 10 Sudoeste 22 Sudoeste 0 942.8 1.3 75
2020-09-19 21:00:00 19.3 11 Sudoeste 22 Sudoeste 0 941.9 0.6 70
2020-09-19 20:00:00 20.4 11 Sudoeste 25 Oeste 0 941.6 0.3 61
2020-09-19 19:00:00 21.5 13 Sudoeste 27 Oeste 0 941.5 -0.2 56
2020-09-19 18:00:00 22.2 15 Sudoeste 31 Oeste 0 941.3 -0.6 53
2020-09-19 17:00:00 21.6 13 Oeste 29 Oeste 0 941.3 -- 56
2020-09-19 16:00:00 21.3 14 Oeste 35 Oeste 0 941.7 -- 56
2020-09-19 15:00:00 21.7 18 Oeste 39 Oeste 0 941.9 -- 54
2020-09-19 14:00:00 21 19 Oeste 35 Oeste 0 942.2 -- 60
2020-09-19 13:00:00 20.3 15 Oeste 35 Sudoeste 0 942.5 -- 61
2020-09-19 12:00:00 19.3 12 Oeste 31 Sudoeste 0 942.6 -- 69
2020-09-19 11:00:00 18.2 12 Sudoeste 33 Sudoeste 0 942.4 -- 73
2020-09-19 10:00:00 17.2 10 Sudoeste 19 Sudoeste 0 942.1 -- 81
2020-09-19 09:00:00 15.6 5 Sudoeste 13 Sur 0 941.9 -- 87
2020-09-19 08:00:00 14.8 6 Sur 17 Sudoeste 0 941.4 -- 90
2020-09-19 07:00:00 14.7 12 Sur 36 Sudoeste 0 940.8 -- 92
2020-09-19 06:00:00 16.1 14 Sudoeste 27 Sudoeste 0 940.4 -- 83
2020-09-19 05:00:00 16.2 10 Sudoeste 25 Sudoeste 0 940.5 -- 83
2020-09-19 04:00:00 16.3 12 Sudoeste 22 Sudoeste 0 940.5 -- 83
2020-09-19 03:00:00 16.3 8 Sur 20 Sudoeste 0 940.8 -- 85
2020-09-19 02:00:00 16.5 6 Sur 24 Sur 0 941 -- 86
2020-09-19 01:00:00 17.2 18 Sur 34 Sur 0 940.9 -- 84
2020-09-19 00:00:00 16.4 14 Sur 23 Sur 0 940.8 -- 89
2020-09-18 23:00:00 16.3 10 Sur 16 Sur 0 940.7 -- 90
2020-09-18 22:00:00 16 10 Sur 16 Sudeste 0 940.1 -- 92
2020-09-18 21:00:00 15.8 5 Sur 14 Sur 0 939.2 -- 96
2020-09-18 20:00:00 15.9 9 Sur 16 Sur 0.4 939.5 -- 97
2020-09-18 19:00:00 15.6 6 Oeste 30 Oeste 1 939.5 -- 98
2020-09-18 18:00:00 16 7 Noroeste -- -- 7.4 939.2 -- 98
2020-09-18 17:00:00 22.4 -- -- -- -- 0 936.5 -- 51
2020-09-18 16:00:00 23.4 12 Este -- -- 0 937.3 -- 43
2020-09-18 15:00:00 21.9 10 Este 18 Este 0 938.3 -- 52
2020-09-18 14:00:00 17.7 4 Nordeste 40 Oeste 1 939.3 -- 79
2020-09-18 13:00:00 18.4 16 Oeste 44 Sur 0 940.5 -- 76
2020-09-18 12:00:00 20.3 16 Sur 34 Sur 0 938.5 -- 64
2020-09-18 11:00:00 20.5 13 Sur 23 Sur 0 939.1 -- 62
2020-09-18 10:00:00 20 14 Sur 21 Sur 0 938.7 -- 63
2020-09-18 09:00:00 19 10 Sur 23 Sur 0 938.5 -- 65
2020-09-18 08:00:00 18.9 17 Sur 35 Sur 0 937.8 -- 65
2020-09-18 07:00:00 19.3 21 Sur 41 Sur 0 937.3 -- 61
2020-09-18 06:00:00 20.2 23 Sur 36 Sur 0 937.6 -- 55
2020-09-18 05:00:00 20.6 22 Sur 37 Sur 0 937.9 -- 53
2020-09-18 04:00:00 20.6 21 Sur 32 Sur 0 938 -- 55
2020-09-18 03:00:00 20.6 19 Sur 41 Sur 0 938.6 -- 57
2020-09-18 02:00:00 21.1 18 Sur 31 Sur 0 938.5 -- 57
2020-09-18 01:00:00 21.1 13 Sur 28 Sur 0 939 -- 69
2020-09-18 00:00:00 21.3 15 Sur 26 Sur 0 939.1 -- 76
2020-09-17 23:00:00 20 5 Sudeste 16 Sudeste 0 938.8 -- 83
2020-09-17 22:00:00 20.7 10 Sudeste 19 Sudeste 0 939 -- 77
2020-09-17 21:00:00 21.1 6 Sudoeste 41 Oeste 0.6 938.3 -- 72
2020-09-17 20:00:00 26.2 8 Sudoeste 22 Sudoeste 0 938.2 -- 46
2020-09-17 19:00:00 27.5 8 Sudoeste 28 Sudoeste 0 937.6 -- 37
2020-09-17 18:00:00 28.9 13 Sudoeste 32 Sudoeste 0 938.2 -- 33
2020-09-17 17:00:00 28.6 17 Sudoeste 31 Sur 0 938.5 -- 35
2020-09-17 16:00:00 27.3 16 Sudoeste 30 Sudoeste 0 939.2 -- 39
2020-09-17 15:00:00 26.4 15 Sudoeste 32 Sudoeste 0 939.9 -- 42
2020-09-17 14:00:00 25.7 17 Sur 33 Sudoeste 0 940.2 -- 46
2020-09-17 13:00:00 24.4 15 Sur 25 Sur 0 940.8 -- 51
2020-09-17 12:00:00 24.4 12 Sudoeste 25 Sur 0 941 -- 53
2020-09-17 11:00:00 22.5 12 Sur 17 Sur 0 941 -- 63
2020-09-17 10:00:00 20.5 6 Sudeste 11 Sudeste 0 940.6 -- 76
2020-09-17 09:00:00 18.7 8 Sudeste 12 Sudeste 0 940.3 -- 83
2020-09-17 08:00:00 18.4 7 Este 12 Este 0 940.1 -- 84
2020-09-17 07:00:00 18.5 8 Este -- -- 0 940 -- 83
2020-09-17 06:00:00 18.3 -- -- -- -- 0 940.2 -- 88
2020-09-17 05:00:00 18.2 9 Este -- -- 0 940.5 -- 91
2020-09-17 04:00:00 18.1 -- -- -- -- 0.4 941.2 -- 92
2020-09-17 03:00:00 18.8 -- -- -- -- 1 942.1 -- 89
2020-09-17 02:00:00 19.6 -- -- -- -- 0 942.6 -- 80
2020-09-17 01:00:00 22.6 12 Oeste 38 Oeste 0 942.1 -- 54
2020-09-17 00:00:00 26.2 6 Sudoeste 21 Sur 0 940.9 -- 32
2020-09-16 23:00:00 26.5 9 Sudoeste 25 Sur 0 940.7 -- 38
2020-09-16 22:00:00 27.4 14 Sur 27 Sudeste 0 940.2 -- 34
2020-09-16 21:00:00 28.8 15 Sudeste -- -- 0 939.7 -- 29
2020-09-16 20:00:00 30.1 2 Nordeste -- -- 0 939.2 -- 25
2020-09-16 19:00:00 31 -- -- -- -- 0 939.3 -- 23
2020-09-16 18:00:00 31.1 -- -- -- -- 0 939.7 -- 25
2020-09-16 17:00:00 31.4 11 Nordeste 19 Norte 0 940.2 -- 26
2020-09-16 16:00:00 30.8 -- -- -- -- 0 941 -- 28
2020-09-16 15:00:00 30.5 9 Este 18 Sudeste 0 941.9 -- 28
2020-09-16 14:00:00 29.7 9 Este 19 Este 0 942.7 -- 30
2020-09-16 13:00:00 29.3 5 Sudoeste 11 Sudoeste 0 943.6 -- 31
2020-09-16 12:00:00 27.5 4 Oeste 8 Este 0 944.1 -- 34
2020-09-16 11:00:00 25.1 4 Sudeste 9 Sudeste 0 944.2 -- 41
2020-09-16 10:00:00 22.2 4 Sur 7 Sur 0 944.5 -- 49
2020-09-16 09:00:00 16.8 4 Este 7 Este 0 944.3 -- 65
2020-09-16 08:00:00 15.5 4 Este 8 Nordeste 0 944.2 -- 69
2020-09-16 07:00:00 16.6 4 Oeste 7 Norte 0 944.1 -- 64
2020-09-16 06:00:00 19.5 5 Sudoeste 13 Sudoeste 0 943.8 -- 55
2020-09-16 05:00:00 19.6 5 Sudoeste 11 Sudoeste 0 943.9 -- 57
2020-09-16 04:00:00 19.6 5 Sudoeste 12 Sudoeste 0 944.4 -- 59
2020-09-16 03:00:00 20.2 5 Sudoeste 10 Sudoeste 0 944.5 -- 58
2020-09-16 02:00:00 19.4 4 Sudoeste 9 Norte 0 944.5 -- 61
2020-09-16 01:00:00 20.4 3 Este 6 Nordeste 0 944.4 -- 55
2020-09-16 00:00:00 22 0 Calma 6 Nordeste 0 944.5 -- 52
2020-09-15 23:00:00 22.8 2 Sudeste 10 Este 0 944.4 -- 50
2020-09-15 22:00:00 24.1 3 Norte 8 Norte 0 944.2 -- 45
2020-09-15 21:00:00 25.8 4 Norte 12 Nordeste 0 943.6 -- 40
2020-09-15 20:00:00 28.7 6 Norte 12 Nordeste 0 943.5 -- 34
2020-09-15 19:00:00 30.3 5 Norte 15 Norte 0 943.5 -- 31
2020-09-15 18:00:00 29.8 6 Norte 14 Sudoeste 0 943.6 -- 32
2020-09-15 17:00:00 30.1 4 Oeste 15 Oeste 0 944 -- 31
2020-09-15 16:00:00 29.9 9 Sudoeste 21 Oeste 0 944.6 -- 34
2020-09-15 15:00:00 29.6 8 Sudoeste 16 Norte 0 945.3 -- 35
2020-09-15 14:00:00 28.2 5 Sur 14 Oeste 0 946 -- 42
2020-09-15 13:00:00 27.5 5 Oeste 14 Oeste 0 946.5 -- 44
2020-09-15 12:00:00 26.3 4 Norte 13 Oeste 0 946.9 -- 48
2020-09-15 11:00:00 24.6 4 Sudoeste 12 Sudoeste 0 947.1 -- 56
2020-09-15 10:00:00 22.5 6 Sudoeste 13 Sudoeste 0 946.7 -- 61
2020-09-15 09:00:00 20.2 8 Sudoeste 13 Sudoeste 0 946.3 -- 66
2020-09-15 08:00:00 19.7 6 Sudoeste 15 Sudoeste 0 945.8 -- 63
2020-09-15 07:00:00 19.3 9 Sur 16 Sudoeste 0 945.6 -- 60
2020-09-15 06:00:00 19.8 10 Sur 15 Sur 0 945.5 -- 59
2020-09-15 05:00:00 19.6 4 Sur 11 Sudoeste 0 945.4 -- 62
2020-09-15 04:00:00 19.4 0 Calma 12 Sur 0 945.6 -- 67
2020-09-15 03:00:00 20.9 8 Sur 14 Sur 0 945.8 -- 64
2020-09-15 02:00:00 20.9 5 Noroeste 13 Sudeste 0 945.8 -- 65
2020-09-15 01:00:00 22.1 6 Este 19 Este 0.4 945.4 -- 59
2020-09-15 00:00:00 22.9 9 Este 17 Este 0 945.3 -- 43
2020-09-14 23:00:00 24.4 2 Oeste 13 Sur 0 944.9 -- 37
2020-09-14 22:00:00 26.6 4 Sur 14 Sudeste 0 944.3 -- 32
2020-09-14 21:00:00 27.2 6 Sudeste 17 Sudeste 0 943.8 -- 31
2020-09-14 20:00:00 27.9 11 Este 21 Sudeste 0 942.9 -- 30
2020-09-14 19:00:00 29.7 17 Oeste 43 Sudoeste 0 944.4 -- 25
2020-09-14 18:00:00 32.3 10 Sudoeste 22 Sudoeste 0 943.4 -- 16
2020-09-14 17:00:00 32.6 8 Este 15 Este 0 943.3 -- 16
2020-09-14 16:00:00 33 6 Sudoeste 14 Noroeste 0 944.1 -- 17
2020-09-14 15:00:00 32.4 7 Sudoeste 15 Noroeste 0 944.8 -- 18
2020-09-14 14:00:00 31 5 Nordeste 12 Nordeste 0 945.6 -- 21
2020-09-14 13:00:00 29.8 4 Noroeste 15 Sudoeste 0 946.1 -- 23
2020-09-14 12:00:00 28.6 4 Este 17 Sudeste 0 946.5 -- 24
2020-09-14 11:00:00 24.8 10 Este -- -- 0 946.4 -- 40
2020-09-14 10:00:00 20.5 8 Este -- -- 0 946.7 -- 57
2020-09-14 09:00:00 17 -- -- -- -- 0 946.3 -- 73
2020-09-14 08:00:00 14.5 7 Este -- -- 0 946 -- 81
2020-09-14 07:00:00 14.2 9 Este 12 Este 0 945.7 -- 82
2020-09-14 06:00:00 14.9 9 Este 13 Este 0 946 -- 77
2020-09-14 05:00:00 16 7 Este -- -- 0 946.1 -- 72
2020-09-14 04:00:00 16.6 10 Este 14 Este 0 946.4 -- 67
2020-09-14 03:00:00 17.2 8 Este 12 Este 0 947 -- 61
2020-09-14 02:00:00 19.4 8 Nordeste -- -- 0 946.9 -- 52
2020-09-14 01:00:00 21.8 -- -- -- -- 0 946.8 -- 44
2020-09-14 00:00:00 24 13 Sudeste 21 Sudeste 0 946.7 -- 38
2020-09-13 23:00:00 23.8 10 Sudeste 17 Sudeste 0 946.5 -- 38
2020-09-13 22:00:00 24.8 11 Sudeste 20 Sudeste 0 946.2 -- 39
2020-09-13 21:00:00 26.7 -- -- -- -- 0 945.4 -- 33
2020-09-13 20:00:00 28.8 15 Sudeste 30 Este 0 945.1 -- 24
2020-09-13 19:00:00 30.2 19 Sudeste 37 Sudeste 0 945 -- 22
2020-09-13 18:00:00 31.7 26 Este 36 Este 0 945 -- 19
2020-09-13 17:00:00 30.9 22 Este 35 Este 0 945.4 -- 19
2020-09-13 16:00:00 31.1 21 Este 34 Este 0 945.3 -- 19
2020-09-13 15:00:00 31.7 22 Este -- -- 0 945.7 -- 19
2020-09-13 14:00:00 31.6 22 Sudeste 38 Este 0 946 -- 22
2020-09-13 13:00:00 31.2 24 Este 33 Este 0 946.3 -- 21
2020-09-13 12:00:00 27.6 21 Nordeste 30 Este 0 946.7 -- 34
2020-09-13 11:00:00 25.4 19 Este 24 Este 0 946.7 -- 38
2020-09-13 10:00:00 21.5 14 Este 19 Este 0 946.5 -- 51
2020-09-13 09:00:00 17.7 10 Este 15 Este 0 946.4 -- 63
2020-09-13 08:00:00 15.5 7 Este 18 Este 0 946 -- 73
2020-09-13 07:00:00 15.8 8 Este 16 Este 0 945.6 -- 72
2020-09-13 06:00:00 16.7 12 Este 20 Este 0 945.2 -- 69
2020-09-13 05:00:00 17.6 14 Este 22 Este 0 945 -- 66
2020-09-13 04:00:00 18.4 12 Este 18 Este 0 944.8 -- 62
2020-09-13 03:00:00 19.5 12 Este 19 Este 0 944.6 -- 54
2020-09-13 02:00:00 20.8 14 Este 24 Este 0 944.3 -- 49
2020-09-13 01:00:00 23.4 4 Sudeste 19 Este 0 944.1 -- 41
2020-09-13 00:00:00 23.8 10 Este 18 Sur 0 944 -- 39
2020-09-12 23:00:00 25.6 11 Sudeste 23 Sudeste 0 943.7 -- 34
2020-09-12 22:00:00 27 14 Sudeste 23 Sudeste 0 943 -- 29
2020-09-12 21:00:00 28.1 16 Este 25 Sudeste 0 942.3 -- 24
2020-09-12 20:00:00 30.8 13 Este 22 Nordeste 0 941.9 -- 21
2020-09-12 19:00:00 32.1 9 Nordeste 22 Nordeste 0 941.6 -- 17
2020-09-12 18:00:00 33.2 6 Norte 21 Norte 0 941.3 -- 16
2020-09-12 17:00:00 33.1 12 Nordeste 32 Nordeste 0 941.4 -- 17
2020-09-12 16:00:00 33.1 13 Nordeste 24 Nordeste 0 941.8 -- 17
2020-09-12 15:00:00 32.6 13 Nordeste 28 Norte 0 942 -- 19
2020-09-12 14:00:00 31.5 13 Nordeste 22 Nordeste 0 942.3 -- 22
2020-09-12 13:00:00 30.6 10 Nordeste 19 Nordeste 0 942.6 -- 25
2020-09-12 12:00:00 28.4 8 Nordeste 14 Nordeste 0 942.7 -- 29
2020-09-12 11:00:00 25.4 8 Nordeste 15 Nordeste 0 942.6 -- 37
2020-09-12 10:00:00 22.2 10 Este 13 Nordeste 0 942.2 -- 44
2020-09-12 09:00:00 17.4 4 Este 8 Este 0 942.1 -- 56
2020-09-12 08:00:00 14.9 5 Este 10 Este 0 941.3 -- 65
2020-09-12 07:00:00 15.5 6 Este 11 Este 0 940.8 -- 62
2020-09-12 06:00:00 15.9 5 Este 13 Este 0 940.6 -- 62
2020-09-12 05:00:00 16.9 8 Este 14 Nordeste 0 940.5 -- 57
2020-09-12 04:00:00 16.5 5 Nordeste 10 Nordeste 0 940.3 -- 52
2020-09-12 03:00:00 16.4 5 Este 17 Nordeste 0 940.2 -- 49
2020-09-12 02:00:00 18.5 4 Sur 16 Nordeste 0 940.3 -- 42
2020-09-12 01:00:00 21.5 8 Sur 12 Sur 0 940 -- 33
2020-09-12 00:00:00 21.7 8 Sur 11 Sur 0 939.7 -- 33
2020-09-11 23:00:00 22.8 5 Sur 7 Sudeste 0 939.4 -- 32
2020-09-11 22:00:00 23.4 4 Nordeste 8 Nordeste 0 939.2 -- 34
2020-09-11 21:00:00 26.4 6 Nordeste 9 Norte 0 938.7 -- 26
2020-09-11 20:00:00 29.8 4 Norte 13 Norte 0 938.5 -- 19
2020-09-11 19:00:00 30.9 6 Norte 15 Norte 0 938.5 -- 17
2020-09-11 18:00:00 31.2 5 Norte 17 Noroeste 0 938.7 -- 16
2020-09-11 17:00:00 32.1 6 Norte 20 Norte 0 939 -- 17
2020-09-11 16:00:00 30.8 7 Norte 18 Norte 0 939.3 -- 18
2020-09-11 15:00:00 31.4 8 Norte 13 Norte 0 939.8 -- 18
2020-09-11 14:00:00 30.8 6 Sudoeste -- -- -- 940.2 -- 21
2020-09-11 13:00:00 -- -- -- -- -- -- -- -- --
2020-09-11 12:00:00 -- -- -- -- -- -- -- -- --
2020-09-11 11:00:00 -- -- -- -- -- -- -- -- --
2020-09-11 10:00:00 -- -- -- -- -- -- -- -- --
2020-09-11 09:00:00 -- -- -- -- -- -- -- -- --
2020-09-11 08:00:00 -- -- -- -- -- -- -- -- --
2020-09-11 07:00:00 -- -- -- -- -- -- -- -- --
2020-09-11 06:00:00 -- -- -- -- -- -- -- -- --
2020-09-11 05:00:00 -- -- -- -- -- -- -- -- --
2020-09-11 04:00:00 -- -- -- -- -- -- -- -- --
2020-09-11 03:00:00 -- -- -- -- -- -- -- -- --
2020-09-11 02:00:00 -- -- -- -- -- -- -- -- --
2020-09-11 01:00:00 -- -- -- -- -- -- -- -- --
2020-09-11 00:00:00 -- -- -- -- -- -- -- -- --
2020-09-10 23:00:00 -- -- -- -- -- -- -- -- --
2020-09-10 22:00:00 -- -- -- -- -- -- -- -- --
2020-09-10 21:00:00 -- -- -- -- -- -- -- -- --
2020-09-10 20:00:00 -- -- -- -- -- -- -- -- --
2020-09-10 19:00:00 -- -- -- -- -- -- -- -- --
2020-09-10 18:00:00 -- -- -- -- -- -- -- -- --
2020-09-10 17:00:00 -- -- -- -- -- -- -- -- --
2020-09-10 16:00:00 -- -- -- -- -- -- -- -- --
2020-09-10 15:00:00 -- -- -- -- -- -- -- -- --
2020-09-10 14:00:00 -- -- -- -- -- -- -- -- --
2020-09-10 13:00:00 -- -- -- -- -- -- -- -- --
2020-09-10 12:00:00 -- -- -- -- -- -- -- -- --
2020-09-10 11:00:00 -- -- -- -- -- -- -- -- --
2020-09-10 10:00:00 -- -- -- -- -- -- -- -- --
2020-09-10 09:00:00 -- -- -- -- -- -- -- -- --
2020-09-10 08:00:00 -- -- -- -- -- -- -- -- --
2020-09-10 07:00:00 -- -- -- -- -- -- -- -- --
2020-09-10 06:00:00 -- -- -- -- -- -- -- -- --
2020-09-10 05:00:00 -- -- -- -- -- -- -- -- --
2020-09-10 04:00:00 -- -- -- -- -- -- -- -- --
2020-09-10 03:00:00 -- -- -- -- -- -- -- -- --
2020-09-10 02:00:00 -- -- -- -- -- -- -- -- --
2020-09-10 01:00:00 -- -- -- -- -- -- -- -- --
2020-09-10 00:00:00 -- -- -- -- -- -- -- -- --
2020-09-09 23:00:00 -- -- -- -- -- -- -- -- --
2020-09-09 22:00:00 -- -- -- -- -- -- -- -- --
2020-09-09 21:00:00 -- -- -- -- -- -- -- -- --
2020-09-09 20:00:00 -- -- -- -- -- -- -- -- --
2020-09-09 19:00:00 -- -- -- -- -- -- -- -- --
2020-09-09 18:00:00 28 6 Nordeste 21 Noroeste 0 943.7 -- 24
2020-09-09 17:00:00 29 5 Norte 21 Norte 0 944 -- 24
2020-09-09 16:00:00 27.9 8 Nordeste 19 Este 0 944.4 -- 25
2020-09-09 15:00:00 26.8 11 Nordeste 21 Este 0 944.8 -- 27
2020-09-09 14:00:00 25.8 12 Nordeste 27 Este 0 945.4 -- 30
2020-09-09 13:00:00 24.9 9 Este 24 Este 0 945.9 -- 32
2020-09-09 12:00:00 24.1 13 Este 24 Nordeste 0 946.4 -- 36
2020-09-09 11:00:00 22.6 17 Este 24 Este 0 946.6 -- 41
2020-09-09 10:00:00 19.2 9 Este 17 Este 0 946.3 -- 54
2020-09-09 09:00:00 14.3 9 Este 12 Este 0 946.2 -- 70
2020-09-09 08:00:00 10.9 6 Este 12 Este 0 945.8 -- 85
2020-09-09 07:00:00 11.5 5 Este 9 Este 0 945.5 -- 84
2020-09-09 06:00:00 12.5 5 Nordeste 9 Nordeste 0 945.5 -- 82
2020-09-09 05:00:00 13.6 6 Nordeste 15 Nordeste 0 945.5 -- 78
2020-09-09 04:00:00 14.4 4 Este 9 Este 0 945.5 -- 75
2020-09-09 03:00:00 14.8 8 Este 13 Este 0 945.5 -- 73
2020-09-09 02:00:00 15.6 9 Este 12 Este 0 945.7 -- 68
2020-09-09 01:00:00 16.9 8 Este 16 Este 0 945.8 -- 61
2020-09-09 00:00:00 19.3 13 Este 22 Sudeste 0 945.5 -- 52
2020-09-08 23:00:00 19.9 12 Este 31 Este 0 945.4 -- 42
2020-09-08 22:00:00 21.4 20 Este 33 Este 0 945.1 -- 35
2020-09-08 21:00:00 22.5 16 Este 35 Nordeste 0 944.6 -- 32
2020-09-08 20:00:00 24.5 22 Este 38 Este 0 944.1 -- 28
2020-09-08 19:00:00 26.1 24 Este 36 Este 0 943.9 -- 24
2020-09-08 18:00:00 26.8 18 Este 38 Nordeste 0 943.9 -- 23
2020-09-08 17:00:00 26.8 18 Este 64 Este 0 944.1 -- 24
2020-09-08 16:00:00 26.9 21 Este 44 Nordeste 0 944.4 -- 26
2020-09-08 15:00:00 25.8 22 Este 40 Este 0 944.9 -- 29
2020-09-08 14:00:00 24.7 21 Este 35 Este 0 945.3 -- 34
2020-09-08 13:00:00 23.8 22 Este 40 Este 0 945.8 -- 43
2020-09-08 12:00:00 21.4 26 Este 42 Este 0 946.1 -- 54
2020-09-08 11:00:00 19.4 27 Este 45 Este 0 946.4 -- 65
2020-09-08 10:00:00 17.2 32 Este 42 Este 0 946.2 -- 76
2020-09-08 09:00:00 15.1 24 Este 36 Este 0 946 -- 84
2020-09-08 08:00:00 13.5 21 Este 35 Este 0 945.4 -- 90
2020-09-08 07:00:00 13.6 19 Este 31 Este 0 944.9 -- 88
2020-09-08 06:00:00 14.1 18 Este 25 Este 0 944.6 -- 83
2020-09-08 05:00:00 14.8 13 Este 29 Este 0 944.5 -- 80
2020-09-08 04:00:00 15.7 18 Este 30 Este 0 944.6 -- 79
2020-09-08 03:00:00 16 19 Este 30 Este 0 944.7 -- 76
2020-09-08 02:00:00 16.8 21 Este 31 Este 0 944.6 -- 72
2020-09-08 01:00:00 17.2 19 Este 30 Este 0 944.5 -- 70
2020-09-08 00:00:00 18.2 19 Este 31 Este 0 944.4 -- 66
2020-09-07 23:00:00 18.9 14 Este 23 Este 0 944 -- 57
2020-09-07 22:00:00 20.6 6 Norte 13 Norte 0 943.2 -- 26
2020-09-07 21:00:00 23.2 5 Norte 19 Norte 0 942.4 -- 23
2020-09-07 20:00:00 25.6 8 Norte 27 Norte 0 942 -- 19
2020-09-07 19:00:00 28.1 10 Norte 25 Norte 0 941.7 -- 14
2020-09-07 18:00:00 28.2 14 Norte 30 Noroeste 0 941.5 -- 13
2020-09-07 17:00:00 29.5 9 Norte 30 Noroeste 0 941.5 -- 16
2020-09-07 16:00:00 28.8 13 Norte 28 Noroeste 0 941.9 -- 17
2020-09-07 15:00:00 28.7 11 Norte 23 Norte 0 942.3 -- 16
2020-09-07 14:00:00 26.8 12 Norte 25 Noroeste 0 942.5 -- 22
2020-09-07 13:00:00 25 12 Norte 21 Norte 0 942.8 -- 40
2020-09-07 12:00:00 24.3 9 Norte 19 Norte 0 942.9 -- 50
2020-09-07 11:00:00 21.7 9 Norte 17 Norte 0 942.9 -- 62
2020-09-07 10:00:00 19.7 8 Norte 15 Nordeste 0 942 -- 67
2020-09-07 09:00:00 16.9 10 Norte 14 Nordeste 0 941.7 -- 77
2020-09-07 08:00:00 14.5 5 Norte 8 Norte 0 941.2 -- 87
2020-09-07 07:00:00 14.7 5 Este 12 Nordeste 0 940.5 -- 80
2020-09-07 06:00:00 15.8 6 Nordeste 18 Norte 0 940.3 -- 74
2020-09-07 05:00:00 17.2 10 Norte 14 Nordeste 0 940.1 -- 67
2020-09-07 04:00:00 18.5 7 Este 11 Este 0 940.3 -- 55
2020-09-07 03:00:00 19.9 9 Este 17 Nordeste 0 940.2 -- 45
2020-09-07 02:00:00 22.5 6 Sudoeste 22 Noroeste 0 940.4 -- 38
2020-09-07 01:00:00 23.9 9 Sur 17 Sur 0 939.8 -- 35
2020-09-07 00:00:00 24.6 13 Sur 19 Sur 0 939.7 -- 32
2020-09-06 23:00:00 25.1 6 Sur 10 Sur 0 939.7 -- 30
2020-09-06 22:00:00 26.8 6 Sudeste 12 Sudeste 0 939.4 -- 25
2020-09-06 21:00:00 27.7 6 Este 9 Este 0 938.9 -- 25
2020-09-06 20:00:00 31.2 5 Norte 17 Norte 0 938.8 -- 17
2020-09-06 19:00:00 33.1 6 Norte 17 Norte 0 938.9 -- 15
2020-09-06 18:00:00 33.2 8 Norte 21 Norte 0 939.1 -- 15
2020-09-06 17:00:00 33.9 8 Norte 22 Nordeste 0 939.4 -- 14
2020-09-06 16:00:00 33.1 10 Norte 21 Norte 0 939.9 -- 15
2020-09-06 15:00:00 32.5 10 Nordeste 21 Nordeste 0 940.5 -- 16
2020-09-06 14:00:00 30.7 10 Nordeste 20 Nordeste 0 941.1 -- 21
2020-09-06 13:00:00 29.1 8 Nordeste 22 Este 0 941.6 -- 24
2020-09-06 12:00:00 27.6 14 Este 27 Este 0 941.9 -- 32
2020-09-06 11:00:00 24.8 17 Este 27 Este 0 942 -- 44
2020-09-06 10:00:00 21.1 15 Este 22 Este 0 941.9 -- 62
2020-09-06 09:00:00 17.4 14 Este 19 Este 0 941.8 -- 80
2020-09-06 08:00:00 15.6 9 Este 19 Nordeste 0 941.4 -- 81
2020-09-06 07:00:00 15.6 10 Nordeste 14 Este 0 941.2 -- 81
2020-09-06 06:00:00 16.2 6 Este 11 Este 0 941.4 -- 83
2020-09-06 05:00:00 17.3 4 Nordeste 16 Este 0 941.6 -- 78
2020-09-06 04:00:00 18.5 11 Este 21 Este 0 941.7 -- 73
2020-09-06 03:00:00 18.5 13 Nordeste 16 Nordeste 0 942.1 -- 69
2020-09-06 02:00:00 19.4 3 Sudeste 9 Este 0 942.3 -- 55
2020-09-06 01:00:00 20.1 8 Este 14 Sudeste 0 942.3 -- 47
2020-09-06 00:00:00 21.9 11 Este 20 Sudeste 0 942.3 -- 40
2020-09-05 23:00:00 21.8 9 Este 15 Este 0 941.8 -- 37
2020-09-05 22:00:00 24.4 8 Sudeste 12 Este 0 941.4 -- 30
2020-09-05 21:00:00 27 8 Este 18 Este 0 940.8 -- 27
2020-09-05 20:00:00 30.5 14 Este 24 Este 0 940.8 -- 21
2020-09-05 19:00:00 32 15 Nordeste 25 Nordeste 0 940.9 -- 19
2020-09-05 18:00:00 32.3 15 Nordeste 25 Nordeste 0 941.1 -- 20
2020-09-05 17:00:00 32.5 9 Nordeste 27 Nordeste 0 941.5 -- 20
2020-09-05 16:00:00 32.6 15 Nordeste 24 Nordeste 0 942.3 -- 21
2020-09-05 15:00:00 31.9 9 Nordeste 22 Nordeste 0 943 -- 22
2020-09-05 14:00:00 29.7 10 Nordeste 19 Nordeste 0 943.5 -- 29
2020-09-05 13:00:00 28 9 Nordeste 15 Nordeste 0 944.4 -- 35
2020-09-05 12:00:00 26.1 7 Este 13 Este 0 944.8 -- 38
2020-09-05 11:00:00 23.7 5 Nordeste 12 Nordeste 0 944.9 -- 48
2020-09-05 10:00:00 20.8 5 Nordeste 8 Nordeste 0 945 -- 58
2020-09-05 09:00:00 16.2 5 Este 8 Este 0 944.8 -- 73
2020-09-05 08:00:00 13.3 8 Este 12 Este 0 944.6 -- 83
2020-09-05 07:00:00 13.8 7 Este 12 Este 0 944.4 -- 86
2020-09-05 06:00:00 14.5 7 Este 12 Este 0 944.4 -- 83
2020-09-05 05:00:00 14.9 7 Este 13 Nordeste 0 944.5 -- 77
2020-09-05 04:00:00 15.7 8 Este 12 Este 0 944.7 -- 74
2020-09-05 03:00:00 16.8 8 Este 21 Este 0 945.1 -- 68
2020-09-05 02:00:00 17.6 9 Este 15 Este 0 945.3 -- 62
2020-09-05 01:00:00 18.2 9 Este 14 Este 0 945.4 -- 59
2020-09-05 00:00:00 19.3 10 Nordeste 12 Nordeste 0 945.5 -- 52
2020-09-04 23:00:00 22.2 5 Este 14 Este 0 945.5 -- 43
2020-09-04 22:00:00 23.9 11 Este 22 Este 0 945.2 -- 36
2020-09-04 21:00:00 26 14 Este 32 Este 0 944.6 -- 30
2020-09-04 20:00:00 28.5 24 Este 36 Nordeste 0 944.2 -- 26
2020-09-04 19:00:00 30.4 26 Este 37 Nordeste 0 944.3 -- 22
2020-09-04 18:00:00 31.2 24 Este 36 Este 0 944.6 -- 20
2020-09-04 17:00:00 31.2 21 Este 37 Nordeste 0 945 -- 18
2020-09-04 16:00:00 31.2 19 Este 37 Este 0 945.6 -- 17
2020-09-04 15:00:00 30.2 17 Este 41 Este 0 946.5 -- 21
2020-09-04 14:00:00 28.9 21 Este 44 Este 0 947.2 -- 23
2020-09-04 13:00:00 27.1 23 Este 37 Nordeste 0 947.9 -- 26
2020-09-04 12:00:00 25.4 25 Este 36 Este 0 948.2 -- 29
2020-09-04 11:00:00 22.1 23 Este 31 Este 0 948.5 -- 54
2020-09-04 10:00:00 19.3 21 Este 27 Este 0 948.1 -- 67
2020-09-04 09:00:00 16.6 13 Este 18 Este 0 947.7 -- 80
2020-09-04 08:00:00 14.6 10 Este 15 Este 0 947.3 -- 85
2020-09-04 07:00:00 15 8 Nordeste 13 Nordeste 0 947 -- 83
2020-09-04 06:00:00 15.6 8 Este 13 Este 0 946.8 -- 79
2020-09-04 05:00:00 16.3 8 Nordeste 20 Nordeste 0 946.7 -- 72
2020-09-04 04:00:00 16.2 5 Nordeste 12 Este 0 946.6 -- 67
2020-09-04 03:00:00 17.2 7 Este 12 Nordeste 0 946.7 -- 62
2020-09-04 02:00:00 18.1 7 Nordeste 14 Norte 0 946.8 -- 57
2020-09-04 01:00:00 21.1 6 Sur 11 Sur 0 946.6 -- 47
2020-09-04 00:00:00 22.2 6 Sur 13 Sudeste 0 946.5 -- 44
2020-09-03 23:00:00 23.4 8 Sudeste 14 Sur 0 946.4 -- 38
2020-09-03 22:00:00 24.1 9 Sudeste 15 Este 0 945.9 -- 31
2020-09-03 21:00:00 26.4 11 Este 23 Este 0 945.2 -- 26
2020-09-03 20:00:00 29.2 16 Este 28 Nordeste 0 944.6 -- 21
2020-09-03 19:00:00 30.5 17 Nordeste 28 Nordeste 0 944.4 -- 18
2020-09-03 18:00:00 31 14 Nordeste 32 Este 0 944.4 -- 18
2020-09-03 17:00:00 31.3 11 Nordeste 29 Nordeste 0 944.5 -- 19
2020-09-03 16:00:00 31.3 11 Nordeste 24 Nordeste 0 944.8 -- 20
2020-09-03 15:00:00 30.1 9 Nordeste 22 Nordeste 0 945.3 -- 22
2020-09-03 14:00:00 29.9 6 Norte 23 Nordeste 0 945.5 -- 19
2020-09-03 13:00:00 27.9 9 Nordeste 19 Este 0 945.8 -- 31
2020-09-03 12:00:00 26 9 Este 17 Este 0 946 -- 41
2020-09-03 11:00:00 23.2 8 Nordeste 12 Nordeste 0 945.9 -- 51
2020-09-03 10:00:00 19.4 7 Este 10 Este 0 945.3 -- 63
2020-09-03 09:00:00 15.4 6 Este 8 Este 0 945.1 -- 77
2020-09-03 08:00:00 12.9 6 Nordeste 7 Nordeste 0 944.5 -- 89
2020-09-03 07:00:00 13.2 5 Este 7 Este 0 944 -- 87
2020-09-03 06:00:00 13.9 5 Este 9 Este 0 943.7 -- 85
2020-09-03 05:00:00 14.7 6 Este 10 Este 0 943.5 -- 80
2020-09-03 04:00:00 15.1 7 Este 12 Este 0 943.5 -- 78
2020-09-03 03:00:00 15.4 7 Nordeste 12 Nordeste 0 943.3 -- 71
2020-09-03 02:00:00 18.2 8 Nordeste 20 Nordeste 0 943.1 -- 59
2020-09-03 01:00:00 20.3 10 Sur 13 Sur 0 942.7 -- 53
2020-09-03 00:00:00 20.4 9 Sur 14 Sur 0 942.6 -- 44
2020-09-02 23:00:00 21 3 Nordeste 6 Nordeste 0 942.2 -- 34
2020-09-02 22:00:00 22 5 Nordeste 9 Este 0 941.6 -- 32
2020-09-02 21:00:00 25.2 4 Norte 12 Norte 0 941 -- 26
2020-09-02 20:00:00 28.1 6 Norte 17 Norte 0 940.5 -- 20
2020-09-02 19:00:00 29.3 8 Norte 19 Norte 0 940.2 -- 19
2020-09-02 18:00:00 30.6 8 Norte 20 Norte 0 940 -- 18
2020-09-02 17:00:00 30.4 12 Norte 24 Norte 0 939.9 -- 16
2020-09-02 16:00:00 30 6 Norte 25 Norte 0 940 -- 17
2020-09-02 15:00:00 29.7 6 Norte 24 Nordeste 0 940.2 -- 19
2020-09-02 14:00:00 27.9 12 Nordeste 21 Nordeste 0 940.4 -- 22
2020-09-02 13:00:00 26.7 9 Nordeste 19 Nordeste 0 940.7 -- 31
2020-09-02 12:00:00 24.3 8 Nordeste 17 Nordeste 0 940.9 -- 38
2020-09-02 11:00:00 21.8 3 Este 13 Este 0 940.5 -- 42
2020-09-02 10:00:00 17 9 Este 16 Este 0 940 -- 78
2020-09-02 09:00:00 15.9 10 Este 15 Este 0 939.7 -- 82
2020-09-02 08:00:00 12.6 7 Este 12 Este 0 939.2 -- 91
2020-09-02 07:00:00 13.2 9 Nordeste 13 Este 0 938.6 -- 91
2020-09-02 06:00:00 14.2 10 Este 16 Este 0 938.3 -- 86
2020-09-02 05:00:00 14.5 11 Este 18 Este 0 938.2 -- 77
2020-09-02 04:00:00 13.8 9 Nordeste 13 Este 0 938.1 -- 47
2020-09-02 03:00:00 14.4 7 Nordeste 14 Nordeste 0 938 -- 43
2020-09-02 02:00:00 16.1 5 Este 7 Este 0 937.9 -- 33
2020-09-02 01:00:00 19.9 5 Sur 12 Sur 0 937.8 -- 25
2020-09-02 00:00:00 20 5 Sur 9 Sur 0 937.7 -- 25
2020-09-01 23:00:00 21.1 3 Sur 9 Este 0 937.4 -- 24
2020-09-01 22:00:00 22.1 0 Calma 6 Noroeste 0 937.3 -- 23
2020-09-01 21:00:00 24.7 3 Norte 8 Noroeste 0 936.7 -- 20
2020-09-01 20:00:00 26.5 4 Noroeste 9 Noroeste 0 936.7 -- 15
2020-09-01 19:00:00 27.4 3 Noroeste 18 Norte 0 936.6 -- 14
2020-09-01 18:00:00 27.4 7 Noroeste 18 Noroeste 0 936.8 -- 15
2020-09-01 17:00:00 28.1 6 Noroeste 20 Nordeste 0 937 -- 15
2020-09-01 16:00:00 28.9 13 Norte 24 Norte 0 937.3 -- 16
2020-09-01 15:00:00 28.1 6 Norte 15 Norte 0 937.9 -- 18
2020-09-01 14:00:00 26.2 4 Sudeste 12 Sur 0 938.4 -- 20
2020-09-01 13:00:00 24.4 5 Sudeste 17 Sur 0 939 -- 24
2020-09-01 12:00:00 19.8 5 Nordeste 14 Este 0 939.8 -- 45
2020-09-01 11:00:00 16.4 3 Este 7 Este 0 940.2 -- 48
2020-09-01 10:00:00 14.3 2 Nordeste 6 Nordeste 0 940 -- 48
2020-09-01 09:00:00 12.2 4 Nordeste 6 Este 0 939.7 -- 49
2020-09-01 08:00:00 11.2 3 Nordeste 5 Nordeste 0 939.6 -- 49
2020-09-01 07:00:00 11.1 2 Este 6 Norte 0 939.5 -- 45
2020-09-01 06:00:00 10.8 2 Este 6 Norte 0 939.7 -- 49
2020-09-01 05:00:00 11.2 4 Norte 9 Norte 0 939.8 -- 46
2020-09-01 04:00:00 13 7 Noroeste 13 Noroeste 0 940.2 -- 40
2020-09-01 03:00:00 13.4 4 Sur 9 Sudeste 0 940.5 -- 34
2020-09-01 02:00:00 14.1 6 Sudeste 10 Sudeste 0 941.1 -- 30
2020-09-01 01:00:00 15.7 4 Sur 7 Sudeste 0 941.3 -- 28
2020-09-01 00:00:00 16.5 3 Sudeste 5 Sudeste 0 941.3 -- 26
2020-08-31 23:00:00 17.9 3 Sur 5 Sudeste 0 940.9 -- 25
2020-08-31 22:00:00 19.6 4 Nordeste 6 Nordeste 0 940.7 -- 24
2020-08-31 21:00:00 22.3 3 Norte 12 Norte 0 940.3 -- 18
2020-08-31 20:00:00 25.8 5 Norte 18 Norte 0 940.3 -- 14
2020-08-31 19:00:00 28 5 Noroeste 17 Noroeste 0 940.6 -- 12
2020-08-31 18:00:00 28 6 Noroeste 19 Norte 0 941.1 -- 12
2020-08-31 17:00:00 28 6 Noroeste 21 Norte 0 941.4 -- 13
2020-08-31 16:00:00 27.4 6 Oeste 18 Norte 0 941.8 -- 13
2020-08-31 15:00:00 26.6 8 Noroeste 18 Noroeste 0 942.5 -- 15
2020-08-31 14:00:00 25.2 7 Norte 22 Nordeste 0 943.3 -- 16
2020-08-31 13:00:00 23.9 9 Norte 20 Nordeste 0 943.6 -- 19
2020-08-31 12:00:00 22.6 12 Este 20 Este 0 944 -- 22
2020-08-31 11:00:00 19.9 8 Este 18 Nordeste 0 944 -- 37
2020-08-31 10:00:00 16.3 13 Este 18 Este 0 943.7 -- 57
2020-08-31 09:00:00 10.8 8 Nordeste 11 Nordeste 0 943.4 -- 70
2020-08-31 08:00:00 7.6 5 Nordeste 10 Norte 0 943.3 -- 73
2020-08-31 07:00:00 7.5 7 Nordeste 9 Nordeste 0 942.8 -- 71
2020-08-31 06:00:00 8.4 4 Nordeste 8 Nordeste 0 942.5 -- 64
2020-08-31 05:00:00 9.6 3 Nordeste 11 Norte 0 942.4 -- 56
2020-08-31 04:00:00 10.5 6 Nordeste 8 Nordeste 0 942.2 -- 49
2020-08-31 03:00:00 10.7 4 Este 9 Este 0 942.5 -- 46
2020-08-31 02:00:00 11.7 5 Nordeste 8 Este 0 942 -- 40
2020-08-31 01:00:00 14.3 3 Sudeste 5 Sudeste 0 942.3 -- 33
2020-08-31 00:00:00 15.5 0 Calma 8 Norte 0 941.9 -- 32
2020-08-30 23:00:00 16.7 4 Norte 9 Norte 0 941.2 -- 30
2020-08-30 22:00:00 18.3 4 Norte 10 Noroeste 0 940.5 -- 28
2020-08-30 21:00:00 20.3 4 Norte 16 Noroeste 0 939.6 -- 23
2020-08-30 20:00:00 22.6 9 Norte 18 Norte 0 939.1 -- 20
2020-08-30 19:00:00 24.2 9 Norte 19 Norte 0 938.6 -- 18
2020-08-30 18:00:00 23.5 6 Nordeste 21 Norte 0 938.4 -- 20
2020-08-30 17:00:00 24.4 6 Noroeste 23 Norte 0 938.5 -- 20
2020-08-30 16:00:00 25.3 8 Noroeste 22 Noroeste 0 938.7 -- 20
2020-08-30 15:00:00 22.6 7 Nordeste 23 Norte 0 939.1 -- 24
2020-08-30 14:00:00 22.6 10 Norte 21 Norte 0 939.5 -- 25
2020-08-30 13:00:00 21.3 10 Norte 23 Norte 0 939.6 -- 28
2020-08-30 12:00:00 19.4 13 Nordeste 23 Norte 0 939.8 -- 31
2020-08-30 11:00:00 16.9 10 Norte 19 Norte 0 939.8 -- 42
2020-08-30 10:00:00 14.4 7 Nordeste 13 Norte 0 939.4 -- 54
2020-08-30 09:00:00 12.1 5 Este 7 Nordeste 0 939 -- 64
2020-08-30 08:00:00 10.1 4 Nordeste 13 Norte 0 938.6 -- 69
2020-08-30 07:00:00 10.4 4 Norte 10 Norte 0 938.1 -- 66
2020-08-30 06:00:00 11.5 4 Norte 15 Norte 0 937.9 -- 62
2020-08-30 05:00:00 12 5 Norte 12 Nordeste 0 937.7 -- 61
2020-08-30 04:00:00 13.5 9 Norte 14 Norte 0 937.7 -- 54
2020-08-30 03:00:00 13.5 4 Este 10 Sudeste 0 937.8 -- 49
2020-08-30 02:00:00 14.3 5 Sudeste 7 Sudeste 0 937.4 -- 45
2020-08-30 01:00:00 15.7 3 Nordeste 24 Norte 0 936.8 -- 41
2020-08-30 00:00:00 17.7 15 Norte 27 Norte 0 936.1 -- 36
2020-08-29 23:00:00 18.6 7 Norte 21 Noroeste 0 935.5 -- 32
2020-08-29 22:00:00 19.3 6 Noroeste 15 Noroeste 0 934.6 -- 28
2020-08-29 21:00:00 21.1 9 Noroeste 26 Noroeste 0 933.8 -- 23
2020-08-29 20:00:00 23 11 Noroeste 31 Noroeste 0 933.4 -- 22
2020-08-29 19:00:00 24.9 12 Noroeste 33 Noroeste 0 933 -- 18
2020-08-29 18:00:00 25.2 15 Norte 39 Nordeste 0 932.7 -- 20
2020-08-29 17:00:00 25.6 14 Norte 37 Noroeste 0 932.5 -- 21
2020-08-29 16:00:00 25 14 Norte 36 Norte 0 932.6 -- 19
2020-08-29 15:00:00 25.4 13 Noroeste 39 Noroeste 0 932.7 -- 20
2020-08-29 14:00:00 24.5 12 Noroeste 36 Norte 0 932.6 -- 22
2020-08-29 13:00:00 24 14 Noroeste 37 Noroeste 0 932.6 -- 24
2020-08-29 12:00:00 21.7 18 Norte 38 Norte 0 932.5 -- 31
2020-08-29 11:00:00 21 18 Norte 39 Norte 0 932.1 -- 34
2020-08-29 10:00:00 18.7 11 Norte 24 Norte 0 932 -- 51
2020-08-29 09:00:00 16.4 6 Noroeste 16 Noroeste 0 932 -- 60
2020-08-29 08:00:00 15.2 5 Oeste 17 Noroeste 0 931.5 -- 56
2020-08-29 07:00:00 16.3 6 Oeste 18 Oeste 0 931.1 -- 46
2020-08-29 06:00:00 17.4 8 Oeste 20 Oeste 0 930.8 -- 39
2020-08-29 05:00:00 18.3 8 Oeste 19 Oeste 0 931 -- 34
2020-08-29 04:00:00 18.5 11 Oeste 17 Oeste 0 931.1 -- 31
2020-08-29 03:00:00 19.4 9 Oeste 15 Sudoeste 0 931.3 -- 27
2020-08-29 02:00:00 20.2 8 Oeste 24 Oeste 0 931.6 -- 27
2020-08-29 01:00:00 22.8 14 Oeste 27 Oeste 0 931.5 -- 24
2020-08-29 00:00:00 24.2 10 Oeste 21 Oeste 0 931.6 -- 31
2020-08-28 23:00:00 25.4 12 Oeste 27 Oeste 0 931.8 -- 31
2020-08-28 22:00:00 26.8 15 Oeste 29 Oeste 0 931.7 -- 28
2020-08-28 21:00:00 28.5 13 Oeste 38 Oeste 0 931.3 -- 23
2020-08-28 20:00:00 30.2 17 Oeste 44 Oeste 0 931 -- 25
2020-08-28 19:00:00 32 19 Oeste 41 Oeste 0 931 -- 24
2020-08-28 18:00:00 32.9 18 Oeste 41 Oeste 0 931.3 -- 20
2020-08-28 17:00:00 33.9 17 Oeste 42 Noroeste 0 931.7 -- 16
2020-08-28 16:00:00 33.4 18 Oeste 43 Oeste 0 932.1 -- 20
2020-08-28 15:00:00 33.2 16 Oeste 33 Oeste 0 932.9 -- 24
2020-08-28 14:00:00 32.6 10 Oeste 30 Oeste 0 933.7 -- 25
2020-08-28 13:00:00 31.1 10 Oeste 22 Oeste 0 934.8 -- 28
2020-08-28 12:00:00 29.7 9 Oeste 20 Oeste 0 935.4 -- 32
2020-08-28 11:00:00 27.5 12 Oeste 21 Oeste 0 935.6 -- 36
2020-08-28 10:00:00 25.5 13 Oeste 26 Oeste 0 935.6 -- 47
2020-08-28 09:00:00 23.7 10 Sudoeste 20 Sudoeste 0 935.6 -- 47
2020-08-28 08:00:00 22.4 8 Sudoeste 19 Sudoeste 0 935.6 -- 48
2020-08-28 07:00:00 23.2 9 Sudoeste 19 Sudoeste 0 935.4 -- 47
2020-08-28 06:00:00 23.3 8 Sudoeste 19 Sudoeste 0 935.6 -- 45
2020-08-28 05:00:00 24.3 8 Oeste 22 Oeste 0 936 -- 38
2020-08-28 04:00:00 25.6 11 Oeste 22 Sudoeste 0 936.5 -- 31
2020-08-28 03:00:00 25.2 10 Sudoeste 23 Sudoeste 0 937 -- 30
2020-08-28 02:00:00 25.8 11 Sudoeste 26 Oeste 0 937.2 -- 27
2020-08-28 01:00:00 26.6 8 Sudoeste 20 Sur 0 937.4 -- 22
2020-08-28 00:00:00 28.8 6 Sudoeste 16 Sudoeste 0 937.6 -- 17
2020-08-27 23:00:00 30 10 Sur 22 Sudoeste 0 937.9 -- 15
2020-08-27 22:00:00 29.6 10 Sur 13 Sur 0 938 -- 16
2020-08-27 21:00:00 32.5 6 Sudeste 10 Norte 0 937.8 -- 14
2020-08-27 20:00:00 35.8 6 Norte 14 Norte 0 937.9 -- 11
2020-08-27 19:00:00 37.9 6 Noroeste 14 Norte 0 938.7 -- 9
2020-08-27 18:00:00 38 5 Noroeste 17 Norte 0 939.4 -- 9
2020-08-27 17:00:00 38.3 6 Norte 21 Sudoeste 0 940.1 -- 9
2020-08-27 16:00:00 37.8 6 Noroeste 19 Oeste 0 941 -- 9
2020-08-27 15:00:00 36.7 7 Sudoeste 19 Sudoeste 0 941.7 -- 10
2020-08-27 14:00:00 35.8 8 Oeste 19 Oeste 0 942.4 -- 10
2020-08-27 13:00:00 34.3 8 Oeste 16 Oeste 0 943 -- 12
2020-08-27 12:00:00 32.5 5 Oeste 14 Oeste 0 943.5 -- 16
2020-08-27 11:00:00 30.1 7 Oeste 13 Oeste 0 943.5 -- 20
2020-08-27 10:00:00 26.5 2 Sudeste 5 Sudeste 0 943.4 -- 26
2020-08-27 09:00:00 21.6 4 Norte 8 Norte 0 943.4 -- 37
2020-08-27 08:00:00 20.2 3 Noroeste 9 Sur 0 943.2 -- 38
2020-08-27 07:00:00 21.9 4 Sudoeste 11 Sudoeste 0 943 -- 31
2020-08-27 06:00:00 22.5 8 Sur 14 Sur 0 942.9 -- 31
2020-08-27 05:00:00 23.1 9 Sur 14 Sur 0 943.3 -- 29
2020-08-27 04:00:00 23.6 9 Sudoeste 16 Sur 0 943.4 -- 29
2020-08-27 03:00:00 25.5 7 Sudoeste 12 Sudoeste 0 943.5 -- 25
2020-08-27 02:00:00 26.1 6 Sudoeste 9 Sudoeste 0 943.7 -- 25
2020-08-27 01:00:00 26.4 5 Sur 12 Sudoeste 0 943.7 -- 26
2020-08-27 00:00:00 28.2 6 Oeste 13 Noroeste 0 943.5 -- 23
2020-08-26 23:00:00 29.6 8 Noroeste 21 Oeste 0 943.2 -- 21
2020-08-26 22:00:00 31.6 6 Oeste 15 Oeste 0 942.5 -- 18
2020-08-26 21:00:00 33.6 4 Oeste 17 Oeste 0 941.9 -- 14
2020-08-26 20:00:00 36.2 9 Oeste 18 Noroeste 0 941.7 -- 12
2020-08-26 19:00:00 38.1 6 Noroeste 22 Oeste 0 941.8 -- 12
2020-08-26 18:00:00 38.4 6 Oeste 17 Sudoeste 0 941.9 -- 13
2020-08-26 17:00:00 38.6 7 Noroeste 20 Sudoeste 0 942.3 -- 13
2020-08-26 16:00:00 37.6 9 Sudoeste 23 Oeste 0 942.8 -- 14
2020-08-26 15:00:00 36.5 7 Sudeste 20 Noroeste 0 943.2 -- 15
2020-08-26 14:00:00 35.9 7 Sudoeste 22 Oeste 0 943.6 -- 15
2020-08-26 13:00:00 34.9 7 Noroeste 13 Oeste 0 944 -- 17
2020-08-26 12:00:00 33 6 Oeste 13 Sudoeste 0 944.1 -- 21
2020-08-26 11:00:00 30.9 6 Oeste 17 Sudoeste 0 944 -- 26
2020-08-26 10:00:00 27.5 10 Sur 16 Sur 0 943.4 -- 32
2020-08-26 09:00:00 21.1 3 Nordeste 8 Nordeste 0 943.4 -- 51
2020-08-26 08:00:00 17.7 3 Nordeste 9 Norte 0 943.1 -- 62
2020-08-26 07:00:00 18.2 5 Sur 9 Sur 0 942.5 -- 54
2020-08-26 06:00:00 19.1 4 Sudoeste 8 Sudoeste 0 942.3 -- 46
2020-08-26 05:00:00 21.1 4 Sudoeste 9 Sudoeste 0 942 -- 41
2020-08-26 04:00:00 23.2 4 Sudoeste 13 Sudoeste 0 941.9 -- 33
2020-08-26 03:00:00 25.1 6 Sudoeste 13 Sur 0 942 -- 30
2020-08-26 02:00:00 26.5 9 Sur 13 Sudoeste 0 941.8 -- 29
2020-08-26 01:00:00 27.6 6 Sudoeste 13 Sudoeste 0 941.8 -- 34
2020-08-26 00:00:00 27.8 10 Sur 18 Sur 0 941.4 -- 35
2020-08-25 23:00:00 28 3 Sur 9 Sudeste 0 941.2 -- 26
2020-08-25 22:00:00 30.2 5 Sur 10 Noroeste 0 940.4 -- 23
2020-08-25 21:00:00 32.3 5 Noroeste 12 Noroeste 0 939.7 -- 20
2020-08-25 20:00:00 35.6 6 Noroeste 17 Noroeste 0 939.4 -- 15
2020-08-25 19:00:00 36.9 5 Noroeste 21 Noroeste 0 939.5 -- 15
2020-08-25 18:00:00 37.5 6 Noroeste 19 Noroeste 0 939.7 -- 14
2020-08-25 17:00:00 37.7 8 Oeste 21 Oeste 0 940 -- 15
2020-08-25 16:00:00 36.9 7 Noroeste 19 Noroeste 0 940.5 -- 16
2020-08-25 15:00:00 36.4 8 Sudoeste 19 Oeste 0 941 -- 17
2020-08-25 14:00:00 34.5 9 Sudoeste 22 Sudoeste 0 941.3 -- 19
2020-08-25 13:00:00 33.8 7 Sudoeste 17 Sudoeste 0 941.6 -- 20
2020-08-25 12:00:00 31.2 6 Oeste 16 Noroeste 0 941.8 -- 26
2020-08-25 11:00:00 29.1 6 Oeste 12 Oeste 0 941.6 -- 32
2020-08-25 10:00:00 24.7 3 Sudeste 5 Sudeste 0 941.5 -- 48
2020-08-25 09:00:00 19.3 3 Norte 6 Norte 0 941.3 -- 64
2020-08-25 08:00:00 15.7 3 Nordeste 6 Nordeste 0 940.8 -- 75
2020-08-25 07:00:00 15.9 4 Este 6 Nordeste 0 940.3 -- 79
2020-08-25 06:00:00 16.2 4 Nordeste 8 Nordeste 0 940.3 -- 76
2020-08-25 05:00:00 18.1 4 Sur 7 Sur 0 940.1 -- 75
2020-08-25 04:00:00 19.4 2 Nordeste 8 Noroeste 0 940.2 -- 72
2020-08-25 03:00:00 20.5 4 Norte 14 Norte 0 940.1 -- 69
2020-08-25 02:00:00 24.2 8 Sur 17 Sur 0 939.9 -- 57
2020-08-25 01:00:00 25 11 Sur 18 Sur 0 939.8 -- 57
2020-08-25 00:00:00 24.8 9 Sur 13 Sur 0 939.9 -- 50
2020-08-24 23:00:00 25.4 5 Sudeste 9 Sudeste 0 939.8 -- 25
2020-08-24 22:00:00 26.8 4 Sur 7 Sudeste 0 939.4 -- 23
2020-08-24 21:00:00 30.2 5 Este 9 Noroeste 0 938.7 -- 19
2020-08-24 20:00:00 33 6 Noroeste 17 Norte 0 938.7 -- 14
2020-08-24 19:00:00 35.5 5 Norte 19 Oeste 0 938.8 -- 12
2020-08-24 18:00:00 35.1 7 Norte 21 Norte 0 939.4 -- 12
2020-08-24 17:00:00 35.2 7 Oeste 20 Oeste 0 939.7 -- 12
2020-08-24 16:00:00 34.7 6 Noroeste 23 Oeste 0 940.1 -- 13
2020-08-24 15:00:00 34.4 6 Noroeste 18 Oeste 0 940.6 -- 15
2020-08-24 14:00:00 32.5 7 Noroeste 18 Oeste 0 941.1 -- 19
2020-08-24 13:00:00 31 9 Sudoeste 15 Sudoeste 0 941.6 -- 22
2020-08-24 12:00:00 29.7 4 Sudoeste 13 Sudoeste 0 942 -- 23
2020-08-24 11:00:00 26.7 3 Este 9 Nordeste 0 942 -- 30
2020-08-24 10:00:00 24.5 4 Sudeste 7 Sudeste 0 941.8 -- 33
2020-08-24 09:00:00 20.3 3 Este 8 Sudeste 0 941.5 -- 75
2020-08-24 08:00:00 17.3 4 Sudeste 7 Sudeste 0 941.2 -- 89
2020-08-24 07:00:00 17.9 4 Este 6 Este 0 941 -- 90
2020-08-24 06:00:00 18.8 5 Este 13 Sudeste 0 940.8 -- 85
2020-08-24 05:00:00 20.1 7 Este 17 Sudeste 0 940.7 -- 83
2020-08-24 04:00:00 20.8 12 Este 17 Este 0 940.9 -- 82
2020-08-24 03:00:00 20.5 5 Este 9 Este 0 940.9 -- 73
2020-08-24 02:00:00 20.6 5 Este 15 Nordeste 0 941 -- 49
2020-08-24 01:00:00 23.5 5 Oeste 10 Noroeste 0 941.2 -- 33
2020-08-24 00:00:00 24.5 7 Noroeste 17 Noroeste 0 941 -- 31
2020-08-23 23:00:00 25.5 5 Nordeste 7 Nordeste 0 941.1 -- 28
2020-08-23 22:00:00 27 2 Este 5 Este 0 940.9 -- 26
2020-08-23 21:00:00 30 0 Calma 14 Norte 0 940.7 -- 19
2020-08-23 20:00:00 33.7 5 Noroeste 20 Norte 0 940.8 -- 14
2020-08-23 19:00:00 35.3 7 Noroeste 21 Norte 0 940.9 -- 14
2020-08-23 18:00:00 35.1 6 Oeste 22 Noroeste 0 941.2 -- 16
2020-08-23 17:00:00 35.8 6 Noroeste 20 Noroeste 0 941.8 -- 16
2020-08-23 16:00:00 34.5 6 Sudoeste 25 Sudoeste 0 942.5 -- 17
2020-08-23 15:00:00 33.5 7 Oeste 18 Noroeste 0 943.2 -- 20
2020-08-23 14:00:00 32.8 8 Norte 18 Nordeste 0 943.7 -- 23
2020-08-23 13:00:00 30.2 10 Nordeste 19 Nordeste 0 944.2 -- 35
2020-08-23 12:00:00 27.9 6 Este 18 Nordeste 0 944.8 -- 53
2020-08-23 11:00:00 25.7 5 Norte 10 Norte 0 945 -- 44
2020-08-23 10:00:00 23.1 3 Norte 6 Noroeste 0 944.8 -- 41
2020-08-23 09:00:00 19.4 3 Este 4 Norte 0 945 -- 47
2020-08-23 08:00:00 15.4 2 Nordeste 5 Norte 0 944.7 -- 58
2020-08-23 07:00:00 15.8 2 Este 4 Este 0 944.4 -- 55
2020-08-23 06:00:00 17.9 3 Sur 6 Sudeste 0 944.3 -- 47
2020-08-23 05:00:00 17.7 3 Este 8 Norte 0 944.5 -- 50
2020-08-23 04:00:00 18.5 3 Noroeste 10 Nordeste 0 944.8 -- 47
2020-08-23 03:00:00 22.3 6 Oeste 10 Oeste 0 944.7 -- 33
2020-08-23 02:00:00 22.5 3 Oeste 7 Oeste 0 944.8 -- 34
2020-08-23 01:00:00 23.3 2 Sur 8 Norte 0 945 -- 32
2020-08-23 00:00:00 25.1 6 Noroeste 12 Noroeste 0 944.5 -- 28
2020-08-22 23:00:00 27 6 Noroeste 24 Noroeste 0 944.4 -- 28
2020-08-22 22:00:00 28.9 7 Noroeste 18 Noroeste 0 944 -- 26
2020-08-22 21:00:00 31.2 6 Noroeste 16 Noroeste 0 943.4 -- 22
2020-08-22 20:00:00 33.9 6 Oeste 24 Oeste 0 943.3 -- 17
2020-08-22 19:00:00 35.2 9 Oeste 23 Oeste 0 943.4 -- 19
2020-08-22 18:00:00 35.4 10 Noroeste 25 Oeste 0 943.6 -- 22
2020-08-22 17:00:00 35 9 Oeste 22 Noroeste 0 944.1 -- 25
2020-08-22 16:00:00 34.8 7 Oeste 19 Sudoeste 0 944.8 -- 26
2020-08-22 15:00:00 33.1 6 Noroeste 21 Noroeste 0 945.4 -- 29
2020-08-22 14:00:00 31.4 8 Oeste 21 Sudoeste 0 945.9 -- 34
2020-08-22 13:00:00 29.7 9 Sur 17 Sur 0 946.3 -- 38
2020-08-22 12:00:00 28.3 5 Norte 13 Norte 0 946.5 -- 40
2020-08-22 11:00:00 26.8 6 Norte 13 Norte 0 946.4 -- 43
2020-08-22 10:00:00 24.7 8 Norte 14 Norte 0 946.2 -- 56
2020-08-22 09:00:00 22.9 3 Nordeste 6 Norte 0 945.8 -- 59
2020-08-22 08:00:00 19.6 2 Sur 5 Sur 0 945.1 -- 63
2020-08-22 07:00:00 19.9 4 Sur 7 Sur 0 944.8 -- 62
2020-08-22 06:00:00 20.6 3 Oeste 5 Oeste 0 944.3 -- 62
2020-08-22 05:00:00 20.6 4 Sudoeste 5 Sudoeste 0 944.2 -- 59
2020-08-22 04:00:00 22 2 Sudoeste 6 Sur 0 944.1 -- 53
2020-08-22 03:00:00 22 3 Sur 8 Oeste 0 944 -- 48
2020-08-22 02:00:00 24.1 3 Oeste 8 Oeste 0 944 -- 45
2020-08-22 01:00:00 24.4 4 Oeste 10 Noroeste 0 943.4 -- 40
2020-08-22 00:00:00 25 4 Noroeste 8 Oeste 0 943 -- 36
2020-08-21 23:00:00 26.7 5 Noroeste 11 Noroeste 0 942.6 -- 31
2020-08-21 22:00:00 28.2 5 Noroeste 13 Noroeste 0 941.8 -- 26
2020-08-21 21:00:00 31.1 7 Noroeste 21 Oeste 0 940.9 -- 22
2020-08-21 20:00:00 33.6 9 Oeste 25 Oeste 0 940.3 -- 17
2020-08-21 19:00:00 35.2 12 Oeste 30 Noroeste 0 940.3 -- 15
2020-08-21 18:00:00 36 13 Oeste 28 Oeste 0 940.3 -- 13
2020-08-21 17:00:00 35.5 12 Sudoeste 28 Oeste 0 940.4 -- 14
2020-08-21 16:00:00 35.3 10 Oeste 24 Oeste 0 940.7 -- 15
2020-08-21 15:00:00 34 10 Oeste 26 Oeste 0 941 -- 17
2020-08-21 14:00:00 32.7 12 Oeste 28 Oeste 0 941.1 -- 19
2020-08-21 13:00:00 31 11 Sudoeste 23 Sudoeste 0 941.3 -- 27
2020-08-21 12:00:00 29.1 7 Oeste 15 Oeste 0 941.3 -- 33
2020-08-21 11:00:00 27.6 5 Oeste 16 Sudoeste 0 941 -- 32
2020-08-21 10:00:00 25.5 7 Oeste 18 Sudoeste 0 940.6 -- 33
2020-08-21 09:00:00 22.2 5 Sur 9 Sur 0 940.2 -- 31
2020-08-21 08:00:00 19.5 6 Sur 13 Sur 0 939.6 -- 35
2020-08-21 07:00:00 19.7 9 Sur 13 Sur 0 939 -- 34
2020-08-21 06:00:00 18.6 6 Sur 8 Sudoeste 0 938.7 -- 36
2020-08-21 05:00:00 21.7 5 Sudoeste 12 Sudoeste 0 938.6 -- 28
2020-08-21 04:00:00 23 7 Sudoeste 17 Sudoeste 0 938.5 -- 24
2020-08-21 03:00:00 24.1 6 Sudoeste 15 Sudoeste 0 938.3 -- 20
2020-08-21 02:00:00 25 8 Oeste 15 Oeste 0 937.9 -- 17
2020-08-21 01:00:00 25.6 6 Noroeste 14 Sudoeste 0 937.4 -- 19
2020-08-21 00:00:00 27.9 8 Sudoeste 18 Sudoeste 0 936.4 -- 16